TN69 weather

Methodist Lebonheur Healthcare Heliport
Germantown, Tennessee, United States

Public forecast

Using degrees Fahrenheit for public forecast. Weather courtesy of forecast.io.

Closest aviation weather report (METAR) to Methodist Lebonheur Healthcare Heliport

Closest report is Olive Branch Airport, 6.7 nm (12.4 km) S. Retrieved 2020/02/22 03:35 UTC (13 minutes ago):

KOLV 220335Z AUTO 00000KT 10SM CLR M00/M06 A3053 RMK A01

Closest aviation forecast (TAF) to Methodist Lebonheur Healthcare Heliport

Closest forecast is Memphis International Airport, 8.8 nm (16.3 km) WSW. Retrieved 2020-02-22 00:24 UTC (3 hours ago):

TAF KMEM 212323Z 2200/2306 34006KT P6SM SKC FM220100 VRB02KT P6SM SKC FM221600 20007KT P6SM FEW250 FM230000 18003KT P6SM SCT250